Time;durP1;ratioP1;P1;durP2;ratioP2;P2;SDS_P1;SDS_P2;PMS_P1;PMS_P2;Temp;Humidity;BMP_temperature;BMP_pressure;BME280_temperature;BME280_humidity;BME280_pressure;Samples;Min_cycle;Max_cycle;Signal;HPM_P1;HPM_P2
2023/06/07 00:00:11;;;;;;;;;4.25;4.00;;;;;15.44;100.00;98458.56;4956016;28;102101;-72
2023/06/07 00:02:38;;;;;;;;;4.50;4.00;;;;;15.45;100.00;98446.56;4948538;28;105470;-72
2023/06/07 00:05:21;;;;;;;;;4.50;4.50;;;;;15.41;100.00;98451.66;4953379;28;104036;-72
2023/06/07 00:08:07;;;;;;;;;5.00;5.00;;;;;15.21;100.00;98406.75;4944066;28;104067;-71
2023/06/07 00:10:51;;;;;;;;;5.00;5.00;;;;;15.45;100.00;98446.56;4954902;28;102290;-72
2023/06/07 00:13:38;;;;;;;;;5.25;5.00;;;;;15.45;100.00;98460.19;4953556;28;102000;-72
2023/06/07 00:16:15;;;;;;;;;7.25;6.50;;;;;15.47;100.00;98455.34;4952736;28;108229;-72
2023/06/07 00:18:42;;;;;;;;;4.50;4.50;;;;;15.49;100.00;98450.50;4958401;28;102424;-73
2023/06/07 00:21:09;;;;;;;;;7.50;6.75;;;;;15.45;100.00;98439.22;4960455;28;102397;-73
2023/06/07 00:23:36;;;;;;;;;4.50;4.25;;;;;15.52;100.00;98440.00;4962881;28;101909;-72
2023/06/07 00:26:03;;;;;;;;;6.00;6.00;;;;;15.31;100.00;98399.66;4958787;28;104015;-73
2023/06/07 00:28:30;;;;;;;;;4.00;4.00;;;;;15.61;100.00;98448.63;4958893;28;102307;-72
2023/06/07 00:30:57;;;;;;;;;5.00;5.00;;;;;15.64;100.00;98442.69;4956140;28;102211;-73
2023/06/07 00:33:24;;;;;;;;;4.25;4.00;;;;;15.67;100.00;98447.66;4955766;28;103073;-73
2023/06/07 00:35:51;;;;;;;;;7.25;6.50;;;;;15.68;100.00;98443.88;4951129;28;104157;-73
2023/06/07 00:38:18;;;;;;;;;8.00;8.00;;;;;15.70;100.00;98446.38;4951374;28;102723;-72
2023/06/07 00:40:45;;;;;;;;;5.25;5.25;;;;;15.73;100.00;98440.44;4960286;28;102410;-72
2023/06/07 00:43:12;;;;;;;;;8.75;7.00;;;;;15.72;100.00;98434.16;4939016;28;102381;-73
2023/06/07 00:45:39;;;;;;;;;10.00;8.00;;;;;15.73;100.00;98437.72;4932068;28;103997;-71
2023/06/07 00:48:07;;;;;;;;;6.25;6.00;;;;;15.74;100.00;98436.66;4944073;28;102302;-72
2023/06/07 00:50:34;;;;;;;;;8.75;8.75;;;;;15.71;100.00;98431.69;4952285;28;102406;-72
2023/06/07 00:53:03;;;;;;;;;10.00;8.00;;;;;15.71;100.00;98437.97;4948711;28;102059;-71
2023/06/07 00:55:31;;;;;;;;;10.00;9.25;;;;;15.69;100.00;98440.09;4948054;28;104005;-71
2023/06/07 00:57:58;;;;;;;;;9.50;9.00;;;;;15.69;100.00;98434.66;4953603;28;102371;-71
2023/06/07 01:00:28;;;;;;;;;12.00;11.00;;;;;15.54;100.00;98420.66;4961726;28;102313;-72
2023/06/07 01:02:56;;;;;;;;;9.75;8.25;;;;;15.62;100.00;98433.94;4954139;28;102237;-72
2023/06/07 01:05:24;;;;;;;;;10.00;8.50;;;;;15.66;100.00;98435.13;4945964;28;108795;-72
2023/06/07 01:07:56;;;;;;;;;7.00;6.50;;;;;15.68;100.00;98434.88;4953140;28;101954;-71
2023/06/07 01:10:50;;;;;;;;;6.75;6.75;;;;;15.69;100.00;98436.53;4941869;28;102070;-72
2023/06/07 01:13:42;;;;;;;;;10.00;8.25;;;;;15.64;100.00;98426.34;4950271;28;102526;-71
2023/06/07 01:16:28;;;;;;;;;8.50;8.50;;;;;15.62;100.00;98429.31;4951197;28;107586;-72
2023/06/07 01:19:21;;;;;;;;;6.00;5.75;;;;;15.68;100.00;98437.59;4944707;28;102087;-72
2023/06/07 01:22:06;;;;;;;;;7.00;6.25;;;;;15.39;100.00;98390.31;4953375;28;102482;-71
2023/06/07 01:24:35;;;;;;;;;7.25;7.25;;;;;15.63;100.00;98424.69;4961425;28;102355;-72
2023/06/07 01:27:07;;;;;;;;;9.00;8.25;;;;;15.63;100.00;98424.69;4955694;28;104175;-71
2023/06/07 01:29:34;;;;;;;;;9.00;8.50;;;;;15.66;100.00;98424.22;4953915;28;102066;-71
2023/06/07 01:32:04;;;;;;;;;8.00;8.00;;;;;15.66;100.00;98424.22;4954505;28;101929;-71
2023/06/07 01:34:33;;;;;;;;;6.50;5.75;;;;;15.68;100.00;98421.25;4957108;28;102061;-72
2023/06/07 01:37:01;;;;;;;;;6.50;6.00;;;;;15.68;100.00;98424.81;4952947;28;104101;-71
2023/06/07 01:39:30;;;;;;;;;6.00;6.00;;;;;15.66;100.00;98417.94;4960592;28;102202;-72
2023/06/07 01:41:59;;;;;;;;;6.00;6.00;;;;;15.71;100.00;98428.97;4954597;28;102019;-72
2023/06/07 01:44:28;;;;;;;;;6.50;5.50;;;;;15.72;100.00;98428.72;4954525;28;101995;-71
2023/06/07 01:46:55;;;;;;;;;6.00;6.00;;;;;15.67;100.00;98436.75;4956797;28;108851;-72
2023/06/07 01:49:22;;;;;;;;;6.00;6.00;;;;;15.62;100.00;98423.84;4953677;28;102253;-72
2023/06/07 01:51:49;;;;;;;;;6.75;6.75;;;;;15.72;100.00;98436.88;4956064;28;102752;-72
2023/06/07 01:54:16;;;;;;;;;4.50;4.50;;;;;15.76;100.00;98438.06;4960042;28;102180;-72
2023/06/07 01:56:48;;;;;;;;;6.75;6.50;;;;;15.76;100.00;98432.59;4959707;28;104041;-72
2023/06/07 01:59:27;;;;;;;;;5.00;4.00;;;;;15.79;100.00;98431.31;4954876;28;102063;-72
2023/06/07 02:01:57;;;;;;;;;5.00;5.00;;;;;15.80;100.00;98425.66;4945778;28;102262;-72
2023/06/07 02:04:30;;;;;;;;;5.75;5.00;;;;;15.78;100.00;98427.75;4929820;28;102145;-72
2023/06/07 02:07:03;;;;;;;;;5.00;5.00;;;;;15.74;100.00;98426.59;4944947;28;108710;-72
2023/06/07 02:09:35;;;;;;;;;5.75;4.00;;;;;15.76;100.00;98429.88;4954976;28;102401;-72
2023/06/07 02:12:03;;;;;;;;;5.00;5.00;;;;;15.76;100.00;98427.16;4951927;28;102201;-72
2023/06/07 02:14:30;;;;;;;;;5.00;5.00;;;;;15.73;100.00;98424.91;4958396;28;102431;-72
2023/06/07 02:16:58;;;;;;;;;5.00;5.00;;;;;15.73;100.00;98424.91;4953915;28;108646;-72
2023/06/07 02:19:26;;;;;;;;;5.00;4.25;;;;;15.73;100.00;98418.63;4950575;28;101977;-72
2023/06/07 02:21:53;;;;;;;;;4.00;4.00;;;;;15.71;100.00;98418.06;4947323;28;101940;-72
2023/06/07 02:24:20;;;;;;;;;5.50;4.25;;;;;15.72;100.00;98419.69;4950895;28;102201;-72
2023/06/07 02:26:47;;;;;;;;;2.75;2.75;;;;;15.73;100.00;98413.19;4954047;28;104055;-72
2023/06/07 02:29:14;;;;;;;;;5.00;5.00;;;;;15.75;100.00;98413.78;4954860;28;102070;-72
2023/06/07 02:31:41;;;;;;;;;4.25;4.25;;;;;15.73;100.00;98411.28;4953464;28;102254;-73
2023/06/07 02:34:09;;;;;;;;;6.75;5.75;;;;;15.69;100.00;98407.38;4932738;28;102263;-72
2023/06/07 02:36:40;;;;;;;;;9.00;8.50;;;;;15.66;100.00;98412.50;4950161;28;104078;-73
2023/06/07 02:39:08;;;;;;;;;4.75;4.75;;;;;15.66;100.00;98410.59;4949381;28;102254;-72
2023/06/07 02:41:35;;;;;;;;;5.00;4.75;;;;;15.67;100.00;98414.97;4951413;28;102065;-73
2023/06/07 02:44:02;;;;;;;;;5.50;5.00;;;;;15.61;100.00;98411.31;4951851;28;102368;-71
2023/06/07 02:46:29;;;;;;;;;3.00;3.00;;;;;15.62;100.00;98417.59;4950400;28;104340;-72
2023/06/07 02:48:56;;;;;;;;;6.00;6.00;;;;;15.58;100.00;98419.94;4951323;28;104178;-73
2023/06/07 02:51:23;;;;;;;;;9.00;9.00;;;;;15.44;100.00;98414.97;4955884;28;101986;-72
2023/06/07 02:53:50;;;;;;;;;11.00;10.50;;;;;15.36;100.00;98418.00;4952781;28;101991;-72
2023/06/07 02:56:17;;;;;;;;;11.75;11.00;;;;;15.34;100.00;98414.72;4950723;28;103980;-72
2023/06/07 02:58:44;;;;;;;;;12.25;10.75;;;;;15.34;100.00;98425.59;4949179;28;102457;-72
2023/06/07 03:01:11;;;;;;;;;13.25;13.25;;;;;15.28;100.00;98415.63;4944150;28;102079;-72
2023/06/07 03:03:39;;;;;;;;;11.50;11.50;;;;;15.32;100.00;98419.53;4951046;28;102588;-72
2023/06/07 03:06:09;;;;;;;;;14.75;12.50;;;;;15.35;100.00;98422.66;4940013;28;104009;-72
2023/06/07 03:08:48;;;;;;;;;10.75;10.25;;;;;15.37;100.00;98409.59;4947165;28;102230;-72
2023/06/07 03:11:15;;;;;;;;;10.50;9.00;;;;;15.42;100.00;98417.06;4955395;28;102035;-72
2023/06/07 03:13:42;;;;;;;;;12.50;11.00;;;;;15.43;100.00;98421.47;4951260;28;101969;-72
2023/06/07 03:16:09;;;;;;;;;9.00;8.75;;;;;15.48;100.00;98424.31;4947480;28;104033;-72
2023/06/07 03:18:36;;;;;;;;;8.25;7.25;;;;;15.51;100.00;98421.13;4953415;28;102120;-72
2023/06/07 03:21:03;;;;;;;;;9.00;8.00;;;;;15.51;100.00;98421.97;4948235;28;101829;-72
2023/06/07 03:23:30;;;;;;;;;11.25;8.75;;;;;15.52;100.00;98417.34;4952645;28;103051;-72
2023/06/07 03:25:58;;;;;;;;;7.00;7.00;;;;;15.59;100.00;98415.31;4946380;28;104215;-72
2023/06/07 03:28:25;;;;;;;;;6.00;5.50;;;;;15.63;100.00;98424.69;4948881;28;102256;-71
2023/06/07 03:30:52;;;;;;;;;5.25;4.50;;;;;15.71;100.00;98420.78;4951213;28;102461;-72
2023/06/07 03:33:21;;;;;;;;;5.00;5.00;;;;;15.79;100.00;98425.88;4956028;28;102224;-72
2023/06/07 03:35:49;;;;;;;;;4.00;4.00;;;;;15.83;100.00;98425.16;4942291;28;104149;-72
2023/06/07 03:38:15;;;;;;;;;3.75;3.75;;;;;15.88;100.00;98419.81;4954047;28;102339;-72
2023/06/07 03:40:42;;;;;;;;;5.50;4.75;;;;;15.92;100.00;98431.91;4936468;28;102024;-72
2023/06/07 03:43:09;;;;;;;;;5.25;5.00;;;;;15.97;100.00;98432.00;4950611;28;103251;-72
2023/06/07 03:45:37;;;;;;;;;5.00;5.00;;;;;16.00;100.00;98426.06;4951158;28;103945;-72
2023/06/07 03:48:04;;;;;;;;;4.00;3.00;;;;;16.02;100.00;98423.94;4952077;28;103358;-72
2023/06/07 03:50:31;;;;;;;;;2.75;2.75;;;;;16.05;100.00;98426.19;4955036;28;102499;-72
2023/06/07 03:56:39;;;;;;;;;6.00;5.25;;;;;16.13;100.00;98432.31;4949970;28;107030;-72
2023/06/07 03:59:06;;;;;;;;;8.50;8.50;;;;;16.08;100.00;98431.16;4961434;28;102372;-72
2023/06/07 04:01:33;;;;;;;;;5.75;5.50;;;;;16.11;100.00;98437.22;4954723;28;101996;-72
2023/06/07 04:04:01;;;;;;;;;5.25;5.25;;;;;16.01;100.00;98416.00;4960634;28;102161;-72
2023/06/07 04:06:28;;;;;;;;;11.00;10.50;;;;;15.94;100.00;98432.47;4955888;28;104087;-71
2023/06/07 04:08:59;;;;;;;;;10.75;10.25;;;;;14.84;100.00;98240.88;4960191;28;103531;-71
2023/06/07 04:11:26;;;;;;;;;13.25;12.00;;;;;15.99;100.00;98437.22;4953294;28;102141;-70
2023/06/07 04:13:54;;;;;;;;;11.25;11.25;;;;;16.07;100.00;98440.38;4959438;28;102113;-71
2023/06/07 04:16:21;;;;;;;;;8.00;8.00;;;;;16.13;100.00;98435.06;4956294;28;109022;-71
2023/06/07 04:18:48;;;;;;;;;10.25;9.00;;;;;16.18;100.00;98433.25;4954911;28;102195;-71
2023/06/07 04:21:15;;;;;;;;;9.75;9.75;;;;;16.16;100.00;98432.69;4957352;28;102040;-72
2023/06/07 04:23:42;;;;;;;;;8.00;7.00;;;;;16.12;100.00;98442.41;4959431;28;102288;-72
2023/06/07 04:26:09;;;;;;;;;9.50;9.00;;;;;16.14;100.00;98431.25;4962120;28;104341;-72
2023/06/07 04:28:37;;;;;;;;;13.00;10.00;;;;;16.09;100.00;98434.72;4949746;28;102300;-72
2023/06/07 04:31:07;;;;;;;;;11.00;10.25;;;;;16.22;100.00;98439.06;4957916;28;102089;-71
2023/06/07 04:33:35;;;;;;;;;9.50;8.00;;;;;16.34;100.00;98437.16;4954853;28;101983;-72
2023/06/07 04:36:02;;;;;;;;;7.00;6.25;;;;;16.36;100.00;98424.06;4949112;28;104059;-71
2023/06/07 04:38:29;;;;;;;;;7.00;7.00;;;;;16.52;100.00;98436.97;4952633;28;102247;-71
2023/06/07 04:40:56;;;;;;;;;6.67;6.00;;;;;16.58;100.00;98432.44;4952142;28;102392;-71
2023/06/07 04:43:23;;;;;;;;;8.00;8.00;;;;;16.43;100.00;98397.50;4956247;28;106053;-70
2023/06/07 04:45:56;;;;;;;;;9.33;8.00;;;;;16.74;100.00;98443.44;4959535;28;104059;-71
2023/06/07 04:48:25;;;;;;;;;5.67;5.67;;;;;16.82;100.00;98445.78;4952265;28;106512;-72
2023/06/07 04:50:56;;;;;;;;;6.25;5.75;;;;;16.84;100.00;98440.88;4957124;28;102809;-71
2023/06/07 04:53:24;;;;;;;;;5.00;5.00;;;;;16.93;100.00;98439.41;4959118;28;102250;-71
2023/06/07 04:55:51;;;;;;;;;8.00;7.00;;;;;16.90;100.00;98436.34;4953385;28;108815;-72
2023/06/07 04:58:19;;;;;;;;;8.00;7.33;;;;;16.89;100.00;98438.25;4950782;28;103221;-71
2023/06/07 05:00:47;;;;;;;;;7.00;6.33;;;;;16.92;99.51;98428.75;4950901;28;102186;-71
2023/06/07 05:03:21;;;;;;;;;8.67;8.00;;;;;16.98;100.00;98432.38;4945959;28;102659;-71
2023/06/07 05:05:49;;;;;;;;;12.75;12.00;;;;;17.01;99.30;98434.63;4957239;28;103919;-71
2023/06/07 05:08:17;;;;;;;;;14.50;11.75;;;;;17.04;99.05;98432.22;4953360;28;101950;-71
2023/06/07 05:10:45;;;;;;;;;11.00;11.00;;;;;16.98;99.79;98444.13;4958511;28;102313;-73
2023/06/07 05:13:12;;;;;;;;;12.25;11.75;;;;;16.86;100.00;98430.53;4950786;28;102162;-71
2023/06/07 05:15:39;;;;;;;;;11.75;10.75;;;;;16.77;100.00;98434.75;4959019;28;104109;-71
2023/06/07 05:18:07;;;;;;;;;9.67;9.00;;;;;16.92;100.00;98432.31;4955160;28;102264;-71
2023/06/07 05:20:34;;;;;;;;;14.75;14.00;;;;;16.84;100.00;98440.06;4956099;28;102425;-71
2023/06/07 05:23:03;;;;;;;;;13.50;13.25;;;;;16.67;100.00;98393.59;4955365;28;102363;-72
2023/06/07 05:25:31;;;;;;;;;15.00;13.75;;;;;16.94;100.00;98427.41;4962085;28;104016;-71
2023/06/07 05:27:58;;;;;;;;;14.00;14.00;;;;;17.01;100.00;98431.91;4960988;28;102259;-72
2023/06/07 05:30:38;;;;;;;;;13.50;12.75;;;;;17.08;100.00;98427.09;4946472;28;102852;-72
2023/06/07 05:33:06;;;;;;;;;13.00;12.00;;;;;17.18;99.53;98443.66;4948815;28;101940;-72
2023/06/07 05:35:33;;;;;;;;;17.00;16.50;;;;;17.18;99.03;98438.19;4954389;28;103011;-72
2023/06/07 05:38:01;;;;;;;;;14.50;14.50;;;;;17.32;98.05;98440.38;4953461;28;102033;-72
2023/06/07 05:40:28;;;;;;;;;16.00;13.67;;;;;17.37;98.03;98443.19;4958793;28;101866;-72
2023/06/07 05:42:56;;;;;;;;;16.25;16.25;;;;;17.50;97.45;98455.69;4962185;28;102334;-72
2023/06/07 05:45:24;;;;;;;;;8.67;8.67;;;;;17.65;96.70;98447.75;4967752;28;104043;-72
2023/06/07 05:47:51;;;;;;;;;11.50;11.50;;;;;17.82;95.66;98451.31;4958254;28;102436;-72
2023/06/07 05:50:20;;;;;;;;;11.00;10.00;;;;;17.90;96.63;98443.75;4849719;28;102656;-72
2023/06/07 05:52:58;;;;;;;;;6.67;6.00;;;;;18.10;96.02;98444.84;4950634;28;102130;-71
2023/06/07 05:55:28;;;;;;;;;5.67;5.00;;;;;18.25;94.86;98444.22;4957990;28;103976;-72
2023/06/07 05:58:00;;;;;;;;;14.00;12.33;;;;;18.13;93.49;98447.09;4957183;28;102062;-72
2023/06/07 06:00:28;;;;;;;;;10.33;10.33;;;;;18.26;93.58;98456.81;4957898;28;102224;-73
2023/06/07 06:02:56;;;;;;;;;11.00;10.67;;;;;18.27;92.54;98453.00;4954409;28;102293;-72
2023/06/07 06:05:27;;;;;;;;;10.00;10.00;;;;;18.46;93.19;98451.59;4956727;28;104164;-72
2023/06/07 06:07:56;;;;;;;;;6.33;5.67;;;;;18.67;92.90;98442.59;4956646;28;102388;-73
2023/06/07 06:10:24;;;;;;;;;6.67;6.33;;;;;18.89;91.83;98445.28;4959469;28;102458;-72
2023/06/07 06:12:52;;;;;;;;;13.67;13.00;;;;;18.75;91.80;98454.97;4958485;28;102119;-72
2023/06/07 06:15:20;;;;;;;;;11.33;10.33;;;;;18.73;90.94;98459.06;4956878;28;104073;-71
2023/06/07 06:17:53;;;;;;;;;11.00;11.00;;;;;18.82;91.28;98457.53;4954473;28;103104;-71
2023/06/07 06:20:21;;;;;;;;;10.00;9.00;;;;;19.23;89.30;98456.03;4954090;28;104428;-71
2023/06/07 06:22:48;;;;;;;;;12.00;11.67;;;;;19.28;88.28;98454.13;4957872;28;102311;-72
2023/06/07 06:25:15;;;;;;;;;11.67;10.67;;;;;19.03;87.76;98451.16;4956104;28;104021;-71
2023/06/07 06:27:44;;;;;;;;;9.00;7.67;;;;;19.24;88.11;98458.50;4956770;28;102381;-71
2023/06/07 06:30:12;;;;;;;;;9.00;8.33;;;;;19.11;88.54;98450.69;4959369;28;102140;-71
2023/06/07 06:32:39;;;;;;;;;9.00;8.00;;;;;19.10;87.89;98451.78;4959810;28;102339;-72
2023/06/07 06:35:08;;;;;;;;;11.33;10.67;;;;;19.27;87.71;98455.25;4957260;28;104719;-70
2023/06/07 06:37:35;;;;;;;;;8.67;8.67;;;;;19.63;87.47;98445.44;4958909;28;101999;-71
2023/06/07 06:40:04;;;;;;;;;11.00;10.33;;;;;19.83;84.98;98450.22;4956663;28;102528;-71
2023/06/07 06:42:31;;;;;;;;;7.67;7.00;;;;;20.11;84.70;98452.59;4958892;28;102500;-71
2023/06/07 06:45:36;;;;;;;;;7.00;7.00;;;;;20.16;82.35;98452.63;4939986;28;103995;-71
2023/06/07 06:48:03;;;;;;;;;5.00;5.00;;;;;20.35;82.07;98439.31;4956931;28;102104;-71
2023/06/07 06:50:30;;;;;;;;;8.00;8.00;;;;;20.31;83.02;98449.97;4937962;28;102153;-71
2023/06/07 06:53:00;;;;;;;;;8.00;7.00;;;;;20.17;83.89;98451.53;4956365;28;102582;-71
2023/06/07 06:55:27;;;;;;;;;10.67;9.00;;;;;20.15;84.15;98448.22;4956070;28;104174;-70
2023/06/07 06:57:54;;;;;;;;;8.33;8.33;;;;;20.13;82.33;98449.59;4956602;28;102177;-71
2023/06/07 07:00:21;;;;;;;;;6.00;5.67;;;;;20.47;81.74;98451.72;4955525;28;106935;-72
2023/06/07 07:02:48;;;;;;;;;6.00;6.00;;;;;20.58;77.73;98447.06;4956595;28;102263;-72
2023/06/07 07:05:16;;;;;;;;;8.00;8.00;;;;;20.32;80.44;98446.13;4957235;28;104452;-72
2023/06/07 07:07:43;;;;;;;;;6.00;5.67;;;;;20.69;80.94;98447.94;4957625;28;102201;-72
2023/06/07 07:10:10;;;;;;;;;5.00;5.00;;;;;21.06;80.64;98442.25;4958382;28;103133;-71
2023/06/07 07:12:40;;;;;;;;;6.67;6.00;;;;;21.30;79.23;98446.97;4958278;28;102519;-69
2023/06/07 07:15:07;;;;;;;;;4.00;4.00;;;;;21.78;74.26;98440.09;4953737;28;108701;-70
2023/06/07 07:17:47;;;;;;;;;5.00;5.00;;;;;21.77;75.20;98445.88;4954517;28;102046;-69
2023/06/07 07:20:16;;;;;;;;;5.00;5.00;;;;;21.62;71.39;98438.44;4955902;28;102034;-71
2023/06/07 07:22:46;;;;;;;;;4.33;4.33;;;;;21.94;74.54;98451.09;4958776;28;102900;-71
2023/06/07 07:25:16;;;;;;;;;6.00;5.00;;;;;22.03;72.97;98449.44;4957681;28;104109;-71
2023/06/07 07:27:43;;;;;;;;;6.67;5.33;;;;;22.14;73.48;98442.81;4956172;28;102507;-71
2023/06/07 07:30:11;;;;;;;;;4.00;4.00;;;;;22.48;72.54;98454.81;4953853;28;102024;-71
2023/06/07 07:32:41;;;;;;;;;5.00;5.00;;;;;22.17;72.77;98447.75;4957247;28;102553;-71
2023/06/07 07:35:08;;;;;;;;;5.00;3.67;;;;;22.01;71.01;98444.22;4953158;28;104275;-70
2023/06/07 07:37:35;;;;;;;;;7.00;6.67;;;;;21.65;72.12;98451.69;4961408;28;101894;-71
2023/06/07 07:40:05;;;;;;;;;5.00;5.00;;;;;21.45;72.80;98448.09;4956637;28;102379;-70
2023/06/07 07:42:33;;;;;;;;;7.00;5.33;;;;;21.56;73.08;98449.75;4959775;28;102281;-71
2023/06/07 07:45:00;;;;;;;;;4.00;4.00;;;;;21.92;73.77;98445.88;4958837;28;104067;-71
2023/06/07 07:47:27;;;;;;;;;3.00;3.00;;;;;22.08;69.25;98450.25;4962808;28;102071;-71
2023/06/07 07:49:55;;;;;;;;;4.00;4.00;;;;;21.95;67.41;98450.84;4960435;28;102362;-71
2023/06/07 07:52:22;;;;;;;;;2.33;2.33;;;;;22.48;69.21;98454.81;4960228;28;102428;-72
2023/06/07 07:54:49;;;;;;;;;4.00;4.00;;;;;22.51;66.27;98456.19;4961002;28;104038;-70
2023/06/07 07:57:16;;;;;;;;;6.00;5.67;;;;;22.77;69.38;98452.25;4955836;28;101946;-72
2023/06/07 07:59:43;;;;;;;;;6.00;5.00;;;;;22.51;71.52;98450.69;4959418;28;102067;-69
2023/06/07 08:02:11;;;;;;;;;4.00;4.00;;;;;22.58;70.43;98456.69;4955064;28;102190;-70
2023/06/07 08:04:38;;;;;;;;;3.00;3.00;;;;;22.70;70.44;98451.69;4955592;28;103825;-70
2023/06/07 08:07:05;;;;;;;;;1.33;1.33;;;;;22.63;70.71;98462.19;4962637;28;102211;-70
2023/06/07 08:09:32;;;;;;;;;4.00;4.00;;;;;22.58;71.58;98463.03;4960412;28;102219;-70
2023/06/07 08:11:59;;;;;;;;;3.33;3.33;;;;;22.51;68.36;98458.94;4961870;28;102324;-71
2023/06/07 08:14:26;;;;;;;;;3.00;3.00;;;;;22.43;69.85;98473.28;4958515;28;104064;-70
2023/06/07 08:16:53;;;;;;;;;3.00;3.00;;;;;22.49;69.88;98458.38;4963107;28;101929;-70
2023/06/07 08:19:20;;;;;;;;;2.33;2.33;;;;;22.26;70.85;98465.34;4941780;28;102204;-70
2023/06/07 08:21:47;;;;;;;;;4.33;4.33;;;;;21.99;69.46;98462.94;4962923;28;102067;-70
2023/06/07 08:24:14;;;;;;;;;6.00;5.00;;;;;22.06;72.50;98469.00;4958152;28;104047;-70
2023/06/07 08:26:44;;;;;;;;;5.00;5.00;;;;;21.91;73.43;98466.22;4961066;28;102307;-70
2023/06/07 08:29:12;;;;;;;;;5.00;4.00;;;;;22.20;72.09;98463.72;4959716;28;105324;-70
2023/06/07 08:31:43;;;;;;;;;11.67;11.67;;;;;21.83;68.38;98465.97;4964746;28;102564;-70
2023/06/07 08:34:10;;;;;;;;;8.67;8.33;;;;;21.68;70.14;98466.78;4956336;28;104111;-70
2023/06/07 08:36:41;;;;;;;;;6.33;6.00;;;;;21.89;70.94;98460.16;4965743;28;101988;-71
2023/06/07 08:39:09;;;;;;;;;5.00;4.67;;;;;22.07;73.32;98459.59;4961108;28;102228;-71
2023/06/07 08:41:36;;;;;;;;;4.00;4.00;;;;;22.01;71.34;98463.50;4963058;28;102248;-71
2023/06/07 08:44:03;;;;;;;;;3.67;2.33;;;;;22.19;71.54;98457.41;4942067;28;109499;-70
2023/06/07 08:46:31;;;;;;;;;7.00;7.00;;;;;21.97;70.10;98459.66;4970495;28;102048;-70
2023/06/07 08:49:00;;;;;;;;;5.67;5.33;;;;;22.07;70.07;98464.28;4956093;28;102425;-70
2023/06/07 08:51:28;;;;;;;;;8.67;8.00;;;;;21.67;70.06;98462.38;4961173;28;102078;-70
2023/06/07 08:53:58;;;;;;;;;9.00;7.67;;;;;21.72;70.56;98454.97;4957515;28;103986;-69
2023/06/07 08:56:28;;;;;;;;;6.00;6.00;;;;;21.89;70.46;98454.66;4958554;28;102001;-70
2023/06/07 08:58:55;;;;;;;;;6.67;6.67;;;;;21.82;68.98;98462.38;4958958;28;102259;-71
2023/06/07 09:01:23;;;;;;;;;3.67;3.67;;;;;22.02;70.06;98454.09;4962379;28;102029;-70
2023/06/07 09:03:53;;;;;;;;;6.33;6.33;;;;;21.86;68.41;98459.91;4956697;28;104113;-70
2023/06/07 09:06:22;;;;;;;;;5.00;5.00;;;;;22.18;69.27;98453.00;4961780;28;102156;-70
2023/06/07 09:08:49;;;;;;;;;4.00;3.67;;;;;22.35;66.11;98458.16;4960986;28;102255;-70
2023/06/07 09:11:16;;;;;;;;;7.33;6.00;;;;;22.31;68.67;98454.31;4963005;28;101905;-70
2023/06/07 09:13:44;;;;;;;;;7.33;7.00;;;;;22.30;66.79;98451.84;4960265;28;104107;-71
2023/06/07 09:16:12;;;;;;;;;6.67;6.00;;;;;22.41;69.76;98456.22;4956344;28;102285;-70
2023/06/07 09:18:53;;;;;;;;;5.67;5.33;;;;;22.37;68.20;98466.16;4963644;28;102304;-69
2023/06/07 09:21:26;;;;;;;;;7.00;7.00;;;;;22.65;65.18;98460.78;4963646;28;102402;-70
2023/06/07 09:23:55;;;;;;;;;8.00;8.00;;;;;22.67;68.40;98464.09;4957965;28;104313;-70
2023/06/07 09:26:23;;;;;;;;;5.33;5.33;;;;;22.82;66.77;98454.97;4956424;28;101932;-70
2023/06/07 09:28:50;;;;;;;;;7.33;7.33;;;;;22.63;66.15;98456.69;4957399;28;102313;-70
2023/06/07 09:31:33;;;;;;;;;6.00;6.00;;;;;22.59;65.37;98461.13;4965818;28;102545;-70
2023/06/07 09:34:20;;;;;;;;;8.00;6.00;;;;;22.47;64.46;98457.88;4943778;28;104007;-70
2023/06/07 09:36:56;;;;;;;;;5.00;5.00;;;;;22.43;64.71;98459.50;4957725;28;102020;-69
2023/06/07 09:39:27;;;;;;;;;6.00;6.00;;;;;22.40;65.26;98458.16;4964716;28;102807;-70
2023/06/07 09:41:56;;;;;;;;;4.00;4.00;;;;;22.68;65.45;98459.41;4959733;28;102257;-71
2023/06/07 09:44:28;;;;;;;;;4.50;4.00;;;;;22.59;64.56;98444.56;4957745;28;104309;-70
2023/06/07 09:46:57;;;;;;;;;5.67;5.00;;;;;22.75;63.10;98456.38;4958744;28;102147;-69
2023/06/07 09:49:32;;;;;;;;;4.67;4.00;;;;;22.93;63.13;98441.94;4956543;28;102509;-71
2023/06/07 09:51:59;;;;;;;;;8.00;7.00;;;;;23.03;63.60;98445.47;4960108;28;102435;-71
2023/06/07 09:54:39;;;;;;;;;7.00;7.00;;;;;23.36;61.19;98443.88;4957607;28;104227;-71
2023/06/07 09:57:08;;;;;;;;;8.00;6.33;;;;;23.50;63.17;98433.03;4958388;28;101971;-70
2023/06/07 09:59:37;;;;;;;;;7.00;7.00;;;;;23.41;60.17;98435.56;4955145;28;101992;-70
2023/06/07 10:02:27;;;;;;;;;8.33;8.00;;;;;23.85;60.37;98435.47;4961369;28;102395;-70
2023/06/07 10:04:56;;;;;;;;;8.00;8.00;;;;;24.07;57.76;98432.19;4957909;28;108620;-71
2023/06/07 10:07:34;;;;;;;;;8.33;8.33;;;;;24.10;57.64;98428.00;4957641;28;101961;-71
2023/06/07 10:10:02;;;;;;;;;7.33;6.67;;;;;24.01;58.82;98428.66;4958141;28;102145;-71
2023/06/07 10:12:35;;;;;;;;;6.00;6.00;;;;;24.25;58.48;98434.22;4961830;28;102049;-71
2023/06/07 10:15:03;;;;;;;;;7.00;7.00;;;;;24.06;59.48;98432.47;4955256;28;108965;-71
2023/06/07 10:18:02;;;;;;;;;9.00;8.00;;;;;23.07;61.13;98437.44;4957780;28;102351;-71
2023/06/07 10:20:34;;;;;;;;;9.67;9.67;;;;;23.07;61.65;98441.03;4961569;28;101855;-71
2023/06/07 10:23:12;;;;;;;;;8.00;7.67;;;;;23.01;60.92;98438.59;4959015;28;102029;-71
2023/06/07 10:25:45;;;;;;;;;8.00;8.00;;;;;23.36;61.50;98420.97;4951113;28;108803;-70
2023/06/07 10:28:19;;;;;;;;;7.67;7.00;;;;;23.75;62.20;98427.25;4957376;28;102391;-71
2023/06/07 10:30:53;;;;;;;;;12.00;11.00;;;;;23.61;61.92;98422.69;4960187;28;102381;-70
2023/06/07 10:33:23;;;;;;;;;11.33;10.33;;;;;23.39;61.38;98420.38;4960559;28;102115;-71
2023/06/07 10:35:51;;;;;;;;;9.67;8.67;;;;;23.67;63.13;98421.56;4959158;28;104398;-71
2023/06/07 10:38:18;;;;;;;;;8.00;8.00;;;;;23.95;59.12;98415.22;4957871;28;101942;-70
2023/06/07 10:40:45;;;;;;;;;8.67;8.00;;;;;24.13;59.31;98413.63;4939552;28;102016;-70
2023/06/07 10:43:13;;;;;;;;;8.67;7.00;;;;;24.39;57.88;98392.88;4959871;28;102370;-70
2023/06/07 10:45:40;;;;;;;;;6.67;6.00;;;;;24.53;56.34;98415.09;4957568;28;103993;-70
2023/06/07 10:48:45;;;;;;;;;5.33;5.33;;;;;24.26;56.30;98418.47;4963619;28;101897;-71
2023/06/07 10:51:13;;;;;;;;;5.33;5.33;;;;;24.38;56.69;98405.06;4875718;28;102252;-71
2023/06/07 10:53:56;;;;;;;;;4.00;4.00;;;;;24.24;55.80;98404.13;4950456;28;103636;-70
2023/06/07 10:56:34;;;;;;;;;4.33;4.33;;;;;24.21;56.02;98388.13;4957131;28;108650;-71
2023/06/07 10:59:14;;;;;;;;;7.67;7.00;;;;;24.13;56.63;98405.34;4957587;28;102186;-71
2023/06/07 11:01:43;;;;;;;;;7.00;6.67;;;;;23.74;56.02;98400.75;4955640;28;102341;-71
2023/06/07 11:04:37;;;;;;;;;4.00;4.00;;;;;23.66;59.81;98403.34;4955956;28;102294;-71
2023/06/07 11:07:30;;;;;;;;;6.00;6.00;;;;;23.67;58.50;98397.53;4930629;28;108732;-71
2023/06/07 11:10:02;;;;;;;;;3.00;3.00;;;;;23.97;57.25;98399.97;4957247;28;101909;-71
2023/06/07 11:12:43;;;;;;;;;3.67;2.67;;;;;24.21;57.06;98404.72;4958313;28;102486;-72
2023/06/07 11:15:16;;;;;;;;;3.33;3.33;;;;;24.40;56.83;98408.38;4954514;28;102814;-71
2023/06/07 11:17:55;;;;;;;;;5.33;5.00;;;;;24.51;53.98;98404.34;4956321;28;103931;-70
2023/06/07 11:20:38;;;;;;;;;4.33;4.00;;;;;24.70;52.87;98399.66;4954168;28;102293;-70
2023/06/07 11:23:24;;;;;;;;;4.00;3.33;;;;;24.41;54.22;98401.69;4960028;28;102021;-70
2023/06/07 11:25:55;;;;;;;;;6.00;5.00;;;;;24.12;54.78;98404.50;4961256;28;101992;-70
2023/06/07 11:28:28;;;;;;;;;3.67;3.67;;;;;24.13;57.59;98389.59;4958034;28;104256;-71
2023/06/07 11:30:56;;;;;;;;;7.00;6.00;;;;;24.21;55.08;98413.00;4957223;28;102618;-72
2023/06/07 11:33:23;;;;;;;;;7.00;7.00;;;;;24.05;55.47;98400.44;4956031;28;101936;-70
2023/06/07 11:35:54;;;;;;;;;6.00;6.00;;;;;24.17;55.52;98376.88;4959394;28;102615;-70